Antoine Hamelin

Antoine Hamelin

Statistiques 2022

  • Courses courues : 250
  • Nb de victoires : 11
  • Nb de places : 41
  • Écart gagnant : 3
  • Réussite à la gagne : 4%
  • Réussite à la place : 16%
Musique : 6p 11p 7p 1p 11p 8p 2p 6p 6p 3p 4p 3p 10p 12p 12p 4p 12p 5p

Antoine Hamelin en quelques mots

Antoine Hamelin est né le 11 juin 1991. Fils de restaurateurs, rien ne le prédestinait à une telle carrière. Il entre à l’AFASEC du Moulin à Vent à Gouvieux et rejoint l’écurie de Jean De Roualle comme apprenti.

Par la suite, le jeune jockey entre au service de Cédric Boutin puis d’Alain de Royer Dupré. Il monte également en course pour Jean-Luc Guillochon, Patrick Chevillard et Jean-Pierre Gauvin.

Le 2 avril 2012, Antoine Hamelin remporte sa 70e victoire synonyme de perte de décharge et de passage dans le rang des professionnels.

Une semaine plus tard, il décroche son premier Groupe III dans le Prix La Force en selle sur Saonois, pensionnaire de Jean-Pierre Gauvin. Le 3 juin 2012, Antoine Hamelin triomphe dans le Prix du Jockey Club (G.I) avec ce dernier.

DateRangCatégorieAlloc.Dist.HippodromeChevalPoidsSpé.
28/06/22 6 Galop 186 904€ Hk-Happy Valley Super Dobbin 54,5 Plat
28/06/22 11 Galop 92 857€ Hk-Happy Valley Anonyma 53 Plat
22/06/22 7 Galop 123 809€ Hk-Happy Valley What A Legend 55,5 Plat
22/06/22 1 Galop 92 857€ Hk-Happy Valley Cigar Buddies 57 Plat
22/06/22 11 Galop 92 857€ Hk-Happy Valley Heavenly Thought 60 Plat
19/06/22 8 Galop 186 904€ Hk-Sha Tin Tempest Express 59 Plat
19/06/22 2 Galop 440 476€ Hk-Sha Tin Lucky Express 55,5 Plat
19/06/22 6 Galop 440 476€ Hk-Sha Tin Champion's Way 57,5 Plat
19/06/22 6 Galop 123 809€ Hk-Sha Tin King Tourbillon 59,5 Plat
12/06/22 3 Galop 186 904€ Hk-Sha Tin Decrypt 57,5 Plat
12/06/22 4 Galop 285 714€ Hk-Sha Tin Running Glory 57,5 Plat
12/06/22 3 Galop 285 714€ Hk-Sha Tin Silver Fig 59,5 Plat
12/06/22 10 Galop 123 809€ Hk-Sha Tin Miracles 55 Plat
12/06/22 12 Galop 123 809€ Hk-Sha Tin Beauty Nova 58 Plat
12/06/22 12 Galop 123 809€ Hk-Sha Tin Big Happiness 59 Plat
08/06/22 4 Galop 186 904€ Hk-Happy Valley Super Dobbin 53,5 Plat
08/06/22 12 Galop 186 904€ Hk-Happy Valley Flying Bonus 56,5 Plat
05/06/22 5 Galop 285 714€ Hk-Sha Tin Beauty Fit 54,5 Plat
05/06/22 13 Galop 186 904€ Hk-Sha Tin Tempest Express 59,5 Plat
05/06/22 6 Galop 186 904€ Hk-Sha Tin Hong Kong Win 57 Plat
05/06/22 12 Galop 123 809€ Hk-Sha Tin Yee Cheong Brave 53 Plat
05/06/22 11 Galop 123 809€ Hk-Sha Tin Young Explorer 55,5 Plat
05/06/22 12 Galop 123 809€ Hk-Sha Tin Happy Matador 54,5 Plat
05/06/22 13 Galop 92 857€ Hk-Sha Tin Destin 58 Plat
05/06/22 9 Galop 92 857€ Hk-Sha Tin Happy Time 59,5 Plat
01/06/22 8 Galop 125 452€ Hk-Happy Valley Blustitch 57 Plat
01/06/22 2 Galop 94 089€ Hk-Happy Valley Treasure Of Field 59,5 Plat
01/06/22 8 Galop 125 452€ Hk-Happy Valley Shadow Breaker 55,5 Plat
29/05/22 7 Galop 289 505€ Hk-Sha Tin Blaze Warrior 59,5 Plat
29/05/22 0 Galop 446 320€ Hk-Sha Tin Champion's Way 59 Plat
29/05/22 4 Galop 125 452€ Hk-Sha Tin Enchanting Ibis 60 Plat
29/05/22 1 Galop 289 505€ Hk-Sha Tin Running Glory 55 Plat
29/05/22 8 Galop 125 452€ Hk-Sha Tin Happy Angel 59 Plat
29/05/22 9 Galop 125 452€ Hk-Sha Tin Yee Cheong Brave 55,5 Plat
25/05/22 9 Galop 189 384€ Hk-Happy Valley Resolute 53 Plat
25/05/22 8 Galop 125 452€ Hk-Happy Valley Farshad 55,5 Plat
22/05/22 11 Galop 189 384€ Hk-Sha Tin Blastoise 55,5 Plat
22/05/22 4 Galop 446 320€ Hk-Sha Tin Lucky Express 55 Plat
22/05/22 9 Galop 189 384€ Hk-Sha Tin Tempest Express 59,5 Plat
22/05/22 10 Galop 1 447 527€ Hk-Sha Tin Nordic Sky 57 Plat
22/05/22 10 Galop 189 384€ Hk-Sha Tin Super Dobbin 55 Plat
18/05/22 11 Galop 277 777€ Hk-Happy Valley Silver Fig 59 Plat
18/05/22 9 Galop 181 712€ Hk-Happy Valley Villa Fionn 55 Plat
18/05/22 9 Galop 181 712€ Hk-Happy Valley Family Folks 59,5 Plat
18/05/22 8 Galop 120 370€ Hk-Happy Valley Victorious Seeker 54 Plat
15/05/22 12 Galop 181 712€ Hk-Sha Tin Seattle Choice 57,5 Plat
15/05/22 11 Galop 120 370€ Hk-Sha Tin Snowalot 57,5 Plat
15/05/22 10 Galop 120 370€ Hk-Sha Tin Miracles 54 Plat
15/05/22 11 Galop 120 370€ Hk-Sha Tin Yee Cheong Brave 56 Plat
15/05/22 12 Galop 90 277€ Hk-Sha Tin Treasure Of Field 59,5 Plat